Time;durP1;ratioP1;P1;durP2;ratioP2;P2;SDS_P1;SDS_P2;PMS_P1;PMS_P2;Temp;Humidity;BMP_temperature;BMP_pressure;BME280_temperature;BME280_humidity;BME280_pressure;Samples;Min_cycle;Max_cycle;Signal;HPM_P1;HPM_P2
2022/05/25 00:01:36;;;;;;;7.23;4.27;;;13.80;99.90;;;;;;4946590;29;20217;-61
2022/05/25 00:04:03;;;;;;;5.73;4.07;;;13.80;99.90;;;;;;4937442;29;20213;-61
2022/05/25 00:06:29;;;;;;;4.53;2.90;;;13.80;99.90;;;;;;4941010;28;20282;-61
2022/05/25 00:08:55;;;;;;;7.13;4.67;;;13.70;99.90;;;;;;4943243;29;20670;-61
2022/05/25 00:11:21;;;;;;;6.80;4.67;;;13.70;99.90;;;;;;4930381;29;20218;-61
2022/05/25 00:13:46;;;;;;;5.13;4.30;;;13.70;99.90;;;;;;4931332;29;20260;-60
2022/05/25 00:16:12;;;;;;;5.60;3.87;;;13.60;99.90;;;;;;4934447;29;20222;-61
2022/05/25 00:19:58;;;;;;;6.27;5.20;;;13.60;99.90;;;;;;4939118;29;20319;-59
2022/05/25 00:21:24;;;;;;;3.83;3.43;;;13.60;99.90;;;;;;4893556;29;20225;-60
2022/05/25 00:23:49;;;;;;;4.30;3.90;;;13.60;99.90;;;;;;4932391;29;20241;-60
2022/05/25 00:26:15;;;;;;;4.60;4.20;;;13.50;99.90;;;;;;4937825;29;20221;-60
2022/05/25 00:28:40;;;;;;;6.20;4.00;;;13.50;99.90;;;;;;4928653;29;20218;-60
2022/05/25 00:31:08;;;;;;;6.03;3.40;;;13.60;99.90;;;;;;4929982;29;20660;-60
2022/05/25 00:33:34;;;;;;;6.73;5.47;;;13.60;99.90;;;;;;4939164;28;20249;-59
2022/05/25 00:35:59;;;;;;;7.67;5.97;;;13.70;99.90;;;;;;4939449;28;20234;-60
2022/05/25 00:38:24;;;;;;;5.53;4.93;;;13.70;99.90;;;;;;4939462;29;20296;-60
2022/05/25 00:40:50;;;;;;;8.23;5.70;;;13.70;99.90;;;;;;4942162;29;20641;-59
2022/05/25 00:43:16;;;;;;;5.60;5.07;;;13.70;99.90;;;;;;4927704;29;20991;-59
2022/05/25 00:45:55;;;;;;;4.30;3.90;;;13.60;99.90;;;;;;4929364;29;20255;-59
2022/05/25 00:48:25;;;;;;;7.27;4.33;;;13.60;99.90;;;;;;4930720;29;20217;-61
2022/05/25 00:53:36;;;;;;;6.73;4.13;;;13.50;99.90;;;;;;4933152;29;20245;-60
2022/05/25 00:56:04;;;;;;;4.63;4.23;;;13.50;99.90;;;;;;4929103;29;20207;-60
2022/05/25 00:58:29;;;;;;;4.63;3.50;;;13.50;99.90;;;;;;4938034;29;20230;-60
2022/05/25 01:00:55;;;;;;;4.20;3.67;;;13.40;99.90;;;;;;4929043;29;20672;-60
2022/05/25 01:03:21;;;;;;;3.93;3.57;;;13.40;99.90;;;;;;4928429;29;20233;-60
2022/05/25 01:06:14;;;;;;;4.10;3.73;;;13.30;99.90;;;;;;4936664;29;21064;-59
2022/05/25 01:09:16;;;;;;;5.03;4.53;;;13.30;99.90;;;;;;4939257;29;20585;-60
2022/05/25 01:12:09;;;;;;;5.43;3.73;;;13.20;99.90;;;;;;4944991;29;20202;-61
2022/05/25 01:15:07;;;;;;;4.30;3.90;;;13.30;99.90;;;;;;4930113;29;20197;-60
2022/05/25 01:17:57;;;;;;;9.73;3.97;;;13.30;99.90;;;;;;4884173;29;20958;-61
2022/05/25 01:20:34;;;;;;;5.23;4.40;;;13.20;99.90;;;;;;4936992;28;20183;-61
2022/05/25 01:23:26;;;;;;;8.93;4.63;;;13.10;99.90;;;;;;4925928;29;20208;-61
2022/05/25 01:26:10;;;;;;;6.70;5.50;;;13.00;99.90;;;;;;4940184;29;20194;-60
2022/05/25 01:29:16;;;;;;;7.90;4.77;;;12.90;99.90;;;;;;4923072;29;20273;-61
2022/05/25 01:32:11;;;;;;;8.30;6.00;;;12.90;99.90;;;;;;4923670;29;20293;-60
2022/05/25 01:34:48;;;;;;;7.37;6.07;;;12.80;99.90;;;;;;4929807;29;20648;-60
2022/05/25 01:37:24;;;;;;;14.60;9.93;;;12.80;99.90;;;;;;4942518;29;20289;-60
2022/05/25 01:40:08;;;;;;;7.17;5.53;;;12.80;99.90;;;;;;4936633;29;20644;-59
2022/05/25 01:42:43;;;;;;;5.70;4.20;;;12.70;99.90;;;;;;4938221;29;20223;-60
2022/05/25 01:45:09;;;;;;;5.03;4.53;;;12.70;99.90;;;;;;4938799;28;20599;-60
2022/05/25 01:47:41;;;;;;;5.13;4.60;;;12.70;99.90;;;;;;4926912;29;20207;-60
2022/05/25 01:50:14;;;;;;;5.67;5.07;;;12.70;99.90;;;;;;4939559;29;20762;-59
2022/05/25 01:52:45;;;;;;;7.97;5.43;;;12.70;99.90;;;;;;4939358;28;20233;-59
2022/05/25 01:55:25;;;;;;;8.27;5.97;;;12.60;99.90;;;;;;4919279;29;20197;-59
2022/05/25 01:57:56;;;;;;;7.70;5.87;;;12.70;99.90;;;;;;4938479;28;20229;-59
2022/05/25 02:00:27;;;;;;;7.97;5.67;;;12.80;99.90;;;;;;4944220;29;20594;-59
2022/05/25 02:05:43;;;;;;;7.63;5.83;;;12.80;99.90;;;;;;4921588;29;20276;-59
2022/05/25 02:08:42;;;;;;;7.40;5.70;;;12.80;99.90;;;;;;4925209;29;20264;-59
2022/05/25 02:11:24;;;;;;;11.53;5.93;;;12.80;99.90;;;;;;4927623;29;20260;-59
2022/05/25 02:14:01;;;;;;;9.43;5.83;;;12.80;99.90;;;;;;4925545;29;20641;-59
2022/05/25 02:16:41;;;;;;;7.93;5.60;;;12.80;99.90;;;;;;4921046;29;20255;-59
2022/05/25 02:19:21;;;;;;;8.90;6.20;;;12.70;99.90;;;;;;4941885;29;20218;-59
2022/05/25 02:21:57;;;;;;;6.83;5.70;;;12.80;99.90;;;;;;4909548;29;20180;-59
2022/05/25 02:24:48;;;;;;;5.47;4.40;;;12.70;99.90;;;;;;4909428;29;20192;-60
2022/05/25 02:27:28;;;;;;;15.33;11.00;;;12.70;99.90;;;;;;4921509;29;20217;-60
2022/05/25 02:29:59;;;;;;;13.70;6.20;;;12.70;99.90;;;;;;4937079;28;20258;-60
2022/05/25 02:32:46;;;;;;;9.93;6.23;;;12.70;99.90;;;;;;4942122;29;20678;-59
2022/05/25 02:35:14;;;;;;;5.93;4.77;;;12.80;99.90;;;;;;4931173;29;20198;-59
2022/05/25 02:37:40;;;;;;;4.43;3.60;;;12.80;99.90;;;;;;4941158;28;20229;-60
2022/05/25 02:40:08;;;;;;;6.13;4.50;;;12.80;99.90;;;;;;4942619;28;20194;-60
2022/05/25 02:42:37;;;;;;;8.33;6.27;;;12.80;99.90;;;;;;4936043;28;20232;-60
2022/05/25 02:45:04;;;;;;;11.13;6.30;;;12.90;99.90;;;;;;4920519;29;20416;-60
2022/05/25 02:47:29;;;;;;;7.57;5.93;;;12.90;99.90;;;;;;4939343;28;20236;-59
2022/05/25 02:49:55;;;;;;;8.43;6.07;;;12.90;99.90;;;;;;4927909;29;20179;-60
2022/05/25 02:52:20;;;;;;;7.20;4.93;;;13.00;99.90;;;;;;4931384;29;20214;-59
2022/05/25 02:54:46;;;;;;;6.53;4.33;;;13.00;99.90;;;;;;4931967;29;20861;-63
2022/05/25 02:57:12;;;;;;;7.17;4.50;;;13.00;99.90;;;;;;4931129;29;20727;-63
2022/05/25 02:59:38;;;;;;;5.17;4.57;;;13.00;99.90;;;;;;4944829;29;20190;-63
2022/05/25 03:02:05;;;;;;;6.60;5.27;;;13.00;99.90;;;;;;4941346;29;20571;-63
2022/05/25 03:04:31;;;;;;;5.00;4.60;;;13.10;99.90;;;;;;4932205;29;20187;-63
2022/05/25 03:06:57;;;;;;;7.27;6.60;;;13.10;99.90;;;;;;4938299;29;20225;-63
2022/05/25 03:09:22;;;;;;;7.40;5.03;;;13.10;99.90;;;;;;4941003;29;20924;-63
2022/05/25 03:11:48;;;;;;;6.60;6.00;;;13.10;99.90;;;;;;4929984;29;20198;-63
2022/05/25 03:14:13;;;;;;;4.40;4.10;;;13.10;99.90;;;;;;4943730;29;20191;-63
2022/05/25 03:16:39;;;;;;;4.93;4.43;;;13.20;99.90;;;;;;4930830;29;20541;-63
2022/05/25 03:19:05;;;;;;;5.17;4.37;;;13.20;99.90;;;;;;4942396;29;20224;-63
2022/05/25 03:21:30;;;;;;;4.73;4.33;;;13.30;99.90;;;;;;4930895;29;20234;-63
2022/05/25 03:23:55;;;;;;;9.67;5.13;;;13.30;99.90;;;;;;4938811;29;20199;-63
2022/05/25 03:26:21;;;;;;;4.83;4.43;;;13.30;99.90;;;;;;4931213;29;20218;-62
2022/05/25 03:28:46;;;;;;;4.83;4.43;;;13.30;99.90;;;;;;4937734;29;20258;-63
2022/05/25 03:31:12;;;;;;;4.90;4.37;;;13.30;99.90;;;;;;4933885;29;20600;-63
2022/05/25 03:33:38;;;;;;;6.53;4.13;;;13.40;99.90;;;;;;4938553;29;20202;-63
2022/05/25 03:36:03;;;;;;;5.47;4.50;;;13.40;99.90;;;;;;4930804;29;20643;-62
2022/05/25 03:38:30;;;;;;;4.20;3.90;;;13.50;99.90;;;;;;4942179;29;20224;-62
2022/05/25 03:40:57;;;;;;;4.13;3.83;;;13.50;99.90;;;;;;4930779;29;20661;-62
2022/05/25 03:43:28;;;;;;;4.77;4.37;;;13.50;99.90;;;;;;4937863;29;20354;-62
2022/05/25 03:45:55;;;;;;;4.87;4.30;;;13.50;99.90;;;;;;4911721;29;20212;-62
2022/05/25 03:48:20;;;;;;;4.80;4.30;;;13.50;99.90;;;;;;4941320;29;20225;-63
2022/05/25 03:50:46;;;;;;;4.37;4.07;;;13.40;99.90;;;;;;4930565;29;20246;-61
2022/05/25 03:53:12;;;;;;;4.67;4.30;;;13.50;99.90;;;;;;4935515;29;20205;-62
2022/05/25 03:55:38;;;;;;;5.23;4.83;;;13.50;99.90;;;;;;4941485;28;20224;-62
2022/05/25 03:58:03;;;;;;;4.93;4.53;;;13.50;99.90;;;;;;4937926;29;20247;-61
2022/05/25 04:00:30;;;;;;;4.83;4.43;;;13.50;99.90;;;;;;4938709;28;20190;-61
2022/05/25 04:02:57;;;;;;;4.80;4.43;;;13.50;99.90;;;;;;4935857;29;20258;-62
2022/05/25 04:05:23;;;;;;;4.67;4.37;;;13.50;99.90;;;;;;4939102;29;20190;-62
2022/05/25 04:07:49;;;;;;;4.80;4.40;;;13.60;99.90;;;;;;4938485;28;20570;-62
2022/05/25 04:10:17;;;;;;;4.97;4.53;;;13.60;99.90;;;;;;4930717;29;20321;-63
2022/05/25 04:12:43;;;;;;;5.50;4.70;;;13.70;99.90;;;;;;4928739;29;20242;-62
2022/05/25 04:15:13;;;;;;;5.50;4.87;;;13.80;99.90;;;;;;4931036;29;20194;-62
2022/05/25 04:17:39;;;;;;;4.33;3.93;;;13.80;99.90;;;;;;4938929;29;20219;-62
2022/05/25 04:20:06;;;;;;;5.17;4.70;;;13.90;99.90;;;;;;4930624;29;20202;-63
2022/05/25 04:22:32;;;;;;;8.07;5.73;;;13.90;99.90;;;;;;4930372;29;20203;-62
2022/05/25 04:24:59;;;;;;;7.93;5.03;;;14.10;99.90;;;;;;4941069;28;20744;-62
2022/05/25 04:27:26;;;;;;;5.13;4.63;;;14.10;99.90;;;;;;4928419;29;20221;-62
2022/05/25 04:29:52;;;;;;;4.83;4.40;;;14.20;99.90;;;;;;4945555;29;20603;-63
2022/05/25 04:32:17;;;;;;;6.37;5.00;;;14.20;99.90;;;;;;4928810;29;20215;-62
2022/05/25 04:34:43;;;;;;;8.23;4.80;;;14.20;99.90;;;;;;4945380;29;20276;-63
2022/05/25 04:39:53;;;;;;;7.17;5.07;;;14.30;99.90;;;;;;4934685;29;20241;-63
2022/05/25 04:42:19;;;;;;;5.23;4.57;;;14.30;99.90;;;;;;4932266;29;20195;-64
2022/05/25 04:44:44;;;;;;;5.50;4.57;;;14.30;99.90;;;;;;4930590;29;20186;-62
2022/05/25 04:47:10;;;;;;;7.23;5.97;;;14.30;99.90;;;;;;4931619;29;20221;-63
2022/05/25 04:49:35;;;;;;;5.13;4.73;;;14.30;99.90;;;;;;4935664;29;20190;-62
2022/05/25 04:52:01;;;;;;;6.77;5.13;;;14.40;99.90;;;;;;4939203;29;20236;-63
2022/05/25 04:54:27;;;;;;;5.90;5.20;;;14.40;99.90;;;;;;4930310;29;20280;-63
2022/05/25 04:59:36;;;;;;;5.77;5.27;;;14.50;99.90;;;;;;4924332;29;20205;-63
2022/05/25 05:02:02;;;;;;;7.43;5.17;;;14.40;99.90;;;;;;4930372;29;20199;-63
2022/05/25 05:04:27;;;;;;;4.40;4.10;;;14.50;99.90;;;;;;4935484;29;20302;-62
2022/05/25 05:06:53;;;;;;;5.63;5.13;;;14.50;99.90;;;;;;4928751;29;20246;-62
2022/05/25 05:09:19;;;;;;;7.80;5.10;;;14.50;99.90;;;;;;4930261;29;20285;-62
2022/05/25 05:11:45;;;;;;;6.77;5.23;;;14.70;99.90;;;;;;4938311;29;20257;-63
2022/05/25 05:14:11;;;;;;;6.50;5.63;;;14.70;99.90;;;;;;4938408;28;20289;-63
2022/05/25 05:16:36;;;;;;;6.20;5.50;;;14.70;99.90;;;;;;4932807;29;20802;-62
2022/05/25 05:19:02;;;;;;;5.70;5.20;;;14.80;99.90;;;;;;4941493;28;20214;-62
2022/05/25 05:21:28;;;;;;;5.77;5.30;;;14.80;99.90;;;;;;4929634;29;20209;-63
2022/05/25 05:23:53;;;;;;;5.70;5.23;;;15.00;99.90;;;;;;4929205;29;20281;-64
2022/05/25 05:26:19;;;;;;;6.27;4.73;;;15.20;99.90;;;;;;4927605;29;20576;-64
2022/05/25 05:28:45;;;;;;;4.90;4.40;;;15.20;99.90;;;;;;4944852;29;20221;-62
2022/05/25 05:31:11;;;;;;;6.07;4.27;;;15.20;99.90;;;;;;4927365;29;20203;-62
2022/05/25 05:33:37;;;;;;;5.27;4.50;;;15.20;99.90;;;;;;4928496;29;20206;-63
2022/05/25 05:36:14;;;;;;;4.50;4.10;;;15.50;99.90;;;;;;4926991;29;20198;-63
2022/05/25 05:38:52;;;;;;;4.50;4.17;;;15.60;99.90;;;;;;4929195;29;20668;-63
2022/05/25 05:41:22;;;;;;;4.73;4.33;;;15.70;99.90;;;;;;4923395;29;20616;-63
2022/05/25 05:43:48;;;;;;;5.87;4.93;;;15.60;99.90;;;;;;4939770;28;20190;-63
2022/05/25 05:46:14;;;;;;;4.53;4.13;;;15.50;99.90;;;;;;4940822;28;20205;-63
2022/05/25 05:48:41;;;;;;;5.10;4.60;;;15.40;99.90;;;;;;4937511;28;20292;-63
2022/05/25 05:51:08;;;;;;;6.53;4.27;;;15.30;99.90;;;;;;4931795;28;20254;-63
2022/05/25 05:53:35;;;;;;;6.07;4.20;;;15.50;99.90;;;;;;4928082;29;20210;-62
2022/05/25 05:56:00;;;;;;;4.27;3.97;;;15.60;99.90;;;;;;4935932;29;20235;-63
2022/05/25 05:58:26;;;;;;;4.17;3.37;;;15.70;99.90;;;;;;4937124;29;21034;-63
2022/05/25 06:00:52;;;;;;;4.27;3.97;;;15.90;99.90;;;;;;4926458;29;20199;-63
2022/05/25 06:03:18;;;;;;;5.57;4.93;;;15.90;99.90;;;;;;4936801;29;20323;-63
2022/05/25 06:05:46;;;;;;;7.00;6.40;;;16.00;99.90;;;;;;4926792;29;20195;-63
2022/05/25 06:08:15;;;;;;;7.33;5.20;;;16.00;99.90;;;;;;4939074;29;20182;-63
2022/05/25 06:10:41;;;;;;;9.27;7.67;;;16.20;99.90;;;;;;4927697;29;20742;-63
2022/05/25 06:13:07;;;;;;;4.67;4.33;;;16.10;99.90;;;;;;4937862;29;20294;-63
2022/05/25 06:21:03;;;;;;;5.33;4.83;;;16.20;99.90;;;;;;4929761;29;20213;-62
2022/05/25 06:23:28;;;;;;;4.77;4.37;;;16.20;99.90;;;;;;4941324;29;20186;-63
2022/05/25 06:25:54;;;;;;;5.57;4.97;;;16.30;99.90;;;;;;4939487;29;20199;-64
2022/05/25 06:28:19;;;;;;;6.17;4.60;;;16.20;99.90;;;;;;4932179;29;20182;-63
2022/05/25 06:30:45;;;;;;;15.00;10.33;;;16.10;99.90;;;;;;4935580;28;20202;-63
2022/05/25 06:33:10;;;;;;;9.13;4.37;;;16.30;99.90;;;;;;4934825;29;20198;-63
2022/05/25 06:35:36;;;;;;;7.43;6.73;;;16.40;99.90;;;;;;4939240;29;20202;-64
2022/05/25 06:38:03;;;;;;;6.60;5.77;;;16.40;99.90;;;;;;4936893;29;20316;-64
2022/05/25 06:40:29;;;;;;;5.67;5.07;;;16.40;99.90;;;;;;4937963;28;20281;-63
2022/05/25 06:42:54;;;;;;;5.47;5.00;;;16.50;99.90;;;;;;4909473;29;20201;-64
2022/05/25 06:45:20;;;;;;;6.53;4.73;;;16.90;99.90;;;;;;4927598;29;20199;-64
2022/05/25 06:47:45;;;;;;;5.30;4.90;;;17.20;99.80;;;;;;4940820;29;20223;-63
2022/05/25 06:50:11;;;;;;;6.07;5.33;;;17.10;99.90;;;;;;4927483;29;20334;-63
2022/05/25 06:52:37;;;;;;;6.17;5.63;;;16.90;99.90;;;;;;4940752;29;20206;-63
2022/05/25 06:55:04;;;;;;;5.60;5.17;;;16.90;99.90;;;;;;4927623;29;20210;-63
2022/05/25 06:57:29;;;;;;;7.53;5.50;;;16.90;99.90;;;;;;4931110;29;20707;-63
2022/05/25 06:59:55;;;;;;;6.47;4.60;;;16.80;99.90;;;;;;4932651;29;20200;-63
2022/05/25 07:02:21;;;;;;;5.57;4.57;;;16.70;99.90;;;;;;4926950;29;20560;-63
2022/05/25 07:04:46;;;;;;;4.30;3.90;;;16.80;99.90;;;;;;4927522;29;20203;-63
2022/05/25 07:07:12;;;;;;;5.83;3.90;;;16.90;99.90;;;;;;4936142;29;20235;-62
2022/05/25 07:09:39;;;;;;;6.20;3.40;;;16.80;99.90;;;;;;4927504;29;20227;-63
2022/05/25 07:12:05;;;;;;;4.00;3.70;;;16.80;99.90;;;;;;4938064;29;20210;-62
2022/05/25 07:14:31;;;;;;;3.50;3.23;;;16.60;99.90;;;;;;4933629;28;20199;-63
2022/05/25 07:16:59;;;;;;;7.10;3.80;;;16.50;99.90;;;;;;4925496;28;20219;-63
2022/05/25 07:19:24;;;;;;;4.27;3.43;;;16.70;99.90;;;;;;4927202;29;20218;-64
2022/05/25 07:21:50;;;;;;;6.10;4.60;;;16.70;99.90;;;;;;4926282;29;20261;-63
2022/05/25 07:24:16;;;;;;;4.83;3.17;;;16.80;99.90;;;;;;4927453;29;20203;-64
2022/05/25 07:26:42;;;;;;;4.23;2.87;;;16.70;99.90;;;;;;4935363;29;20215;-64
2022/05/25 07:29:07;;;;;;;3.57;3.23;;;16.60;99.90;;;;;;4930166;29;20205;-62
2022/05/25 07:31:51;;;;;;;3.20;3.00;;;16.70;99.90;;;;;;4934453;29;20839;-63
2022/05/25 07:34:22;;;;;;;3.30;3.00;;;16.80;99.90;;;;;;4915215;29;20191;-64
2022/05/25 07:37:02;;;;;;;3.63;3.33;;;16.90;99.90;;;;;;4934709;29;20551;-63
2022/05/25 07:39:33;;;;;;;3.50;3.20;;;16.90;99.90;;;;;;4941388;29;20349;-63
2022/05/25 07:42:01;;;;;;;3.97;3.57;;;17.00;99.90;;;;;;4924930;29;20666;-63
2022/05/25 07:44:35;;;;;;;4.67;4.27;;;17.00;99.90;;;;;;4930318;29;20294;-63
2022/05/25 07:47:02;;;;;;;3.53;3.17;;;17.00;99.90;;;;;;4924453;29;20214;-63
2022/05/25 07:49:28;;;;;;;3.60;3.30;;;17.00;99.90;;;;;;4943845;28;20229;-64
2022/05/25 07:51:54;;;;;;;5.57;3.93;;;17.00;99.90;;;;;;4939938;28;20238;-63
2022/05/25 07:54:20;;;;;;;4.03;3.73;;;17.10;99.90;;;;;;4943007;29;20678;-63
2022/05/25 07:56:46;;;;;;;4.13;3.73;;;17.10;99.90;;;;;;4944364;28;20215;-63
2022/05/25 07:59:14;;;;;;;4.70;4.30;;;17.20;99.70;;;;;;4939266;29;20653;-63
2022/05/25 08:07:20;;;;;;;3.97;3.67;;;17.80;99.50;;;;;;4924346;29;20227;-63
2022/05/25 08:09:47;;;;;;;5.90;5.17;;;18.00;99.10;;;;;;4930258;29;20690;-62
2022/05/25 08:12:12;;;;;;;3.90;3.53;;;17.70;99.50;;;;;;4938927;29;20198;-63
2022/05/25 08:14:38;;;;;;;5.03;3.57;;;17.40;99.90;;;;;;4930637;29;20695;-63
2022/05/25 08:17:06;;;;;;;3.93;3.53;;;17.30;99.90;;;;;;4931166;29;20254;-62
2022/05/25 08:19:32;;;;;;;4.03;3.57;;;17.40;99.90;;;;;;4936077;29;20203;-63
2022/05/25 08:21:58;;;;;;;4.17;3.77;;;17.60;99.90;;;;;;4929757;28;20663;-63
2022/05/25 08:24:23;;;;;;;7.33;4.17;;;17.50;98.90;;;;;;4934931;29;20197;-62
2022/05/25 08:26:49;;;;;;;3.77;3.47;;;17.50;99.00;;;;;;4929293;29;20212;-63
2022/05/25 08:29:14;;;;;;;7.07;2.93;;;17.50;99.30;;;;;;4930193;29;20196;-64
2022/05/25 08:31:40;;;;;;;3.80;3.50;;;17.50;98.30;;;;;;4938688;29;20817;-64
2022/05/25 08:34:06;;;;;;;3.93;3.33;;;17.50;99.10;;;;;;4944141;29;20212;-64
2022/05/25 08:36:32;;;;;;;4.33;3.67;;;17.70;98.60;;;;;;4937338;28;20207;-63
2022/05/25 08:38:58;;;;;;;4.20;3.67;;;17.70;98.50;;;;;;4934756;29;20213;-63
2022/05/25 08:41:31;;;;;;;5.03;3.33;;;17.70;98.70;;;;;;4940807;28;20210;-64
2022/05/25 08:43:59;;;;;;;3.97;3.67;;;17.70;98.60;;;;;;4910966;29;20405;-63
2022/05/25 08:46:26;;;;;;;4.20;3.80;;;17.70;98.80;;;;;;4924352;29;20638;-64
2022/05/25 08:48:52;;;;;;;3.67;3.33;;;17.80;99.00;;;;;;4934328;28;20230;-63
2022/05/25 08:51:25;;;;;;;4.47;4.07;;;18.10;98.50;;;;;;4935837;28;20321;-64
2022/05/25 08:53:51;;;;;;;4.93;4.43;;;18.10;98.70;;;;;;4918434;28;20277;-63
2022/05/25 08:56:26;;;;;;;6.57;3.77;;;17.80;98.60;;;;;;4938681;28;20214;-62
2022/05/25 08:59:06;;;;;;;4.30;3.20;;;17.60;99.40;;;;;;4943295;29;20218;-62
2022/05/25 09:01:41;;;;;;;6.93;3.70;;;17.60;99.40;;;;;;4941100;29;20212;-64
2022/05/25 09:04:36;;;;;;;3.63;2.90;;;17.70;99.60;;;;;;4922837;29;20560;-62
2022/05/25 09:07:15;;;;;;;4.40;2.50;;;18.00;99.40;;;;;;4922656;29;20207;-64
2022/05/25 09:09:46;;;;;;;4.83;2.97;;;17.90;98.60;;;;;;4940793;29;20188;-63
2022/05/25 09:12:23;;;;;;;4.63;2.90;;;17.70;98.70;;;;;;4926382;29;20235;-64
2022/05/25 09:15:00;;;;;;;4.30;3.20;;;17.70;98.40;;;;;;4926108;29;20194;-63
2022/05/25 09:17:32;;;;;;;4.67;3.07;;;17.50;98.10;;;;;;4925376;29;20606;-63
2022/05/25 09:19:59;;;;;;;3.10;2.83;;;17.70;98.60;;;;;;4935978;29;20207;-62
2022/05/25 09:22:26;;;;;;;3.47;3.23;;;17.80;98.40;;;;;;4936412;28;20707;-62
2022/05/25 09:24:55;;;;;;;6.23;3.20;;;18.00;98.00;;;;;;4945464;28;20201;-63
2022/05/25 09:27:26;;;;;;;3.63;2.70;;;18.00;98.80;;;;;;4936625;29;20210;-63
2022/05/25 09:29:58;;;;;;;3.07;2.40;;;18.20;97.70;;;;;;4935457;29;20194;-63
2022/05/25 09:32:47;;;;;;;2.27;2.07;;;18.00;97.40;;;;;;4935522;28;20207;-64
2022/05/25 09:35:18;;;;;;;3.40;2.70;;;17.90;97.40;;;;;;4939712;29;20301;-63
2022/05/25 09:38:05;;;;;;;3.90;2.67;;;17.90;96.20;;;;;;4934491;29;20342;-63
2022/05/25 09:40:33;;;;;;;3.40;3.20;;;18.10;95.70;;;;;;4932530;29;20230;-64
2022/05/25 09:43:01;;;;;;;4.83;2.77;;;18.20;95.60;;;;;;4946239;29;20192;-62
2022/05/25 09:45:40;;;;;;;11.13;7.70;;;18.20;95.30;;;;;;4942253;28;20195;-63
2022/05/25 09:48:16;;;;;;;8.47;3.90;;;18.20;94.90;;;;;;4942717;29;20302;-63
2022/05/25 09:50:49;;;;;;;2.90;2.63;;;18.30;95.30;;;;;;4929517;28;20223;-64
2022/05/25 09:53:17;;;;;;;3.13;2.67;;;18.50;95.00;;;;;;4939033;28;20555;-63
2022/05/25 09:55:46;;;;;;;4.73;2.57;;;18.70;94.00;;;;;;4926471;29;20267;-64
2022/05/25 09:58:27;;;;;;;3.60;3.30;;;19.00;93.90;;;;;;4931295;29;20228;-65
2022/05/25 10:01:16;;;;;;;3.30;2.63;;;19.10;92.40;;;;;;4923926;29;20548;-61
2022/05/25 10:03:44;;;;;;;7.23;3.13;;;19.20;92.10;;;;;;4930353;29;20278;-62
2022/05/25 10:06:25;;;;;;;2.50;2.30;;;19.30;91.60;;;;;;4925477;29;20204;-59
2022/05/25 10:09:17;;;;;;;3.10;2.47;;;19.40;92.00;;;;;;4909643;29;20960;-61
2022/05/25 10:11:52;;;;;;;3.57;2.33;;;19.90;90.30;;;;;;4929656;29;20202;-61
2022/05/25 10:14:23;;;;;;;2.77;2.50;;;19.90;90.30;;;;;;4937766;29;20200;-61
2022/05/25 10:16:49;;;;;;;2.60;2.40;;;19.90;90.10;;;;;;4918909;29;20277;-61
2022/05/25 10:19:18;;;;;;;2.87;2.63;;;19.90;90.60;;;;;;4928077;29;20209;-64
2022/05/25 10:21:51;;;;;;;3.60;2.27;;;19.90;90.00;;;;;;4926928;29;20207;-63
2022/05/25 10:24:27;;;;;;;2.47;2.27;;;19.90;90.30;;;;;;4920695;29;20190;-62
2022/05/25 10:26:56;;;;;;;4.53;2.70;;;19.80;90.70;;;;;;4927075;29;20211;-62
2022/05/25 10:38:26;;;;;;;3.13;2.30;;;19.70;89.90;;;;;;4926424;29;20216;-63
2022/05/25 10:40:52;;;;;;;3.13;2.83;;;19.60;90.00;;;;;;4934417;29;20201;-75
2022/05/25 10:43:26;;;;;;;3.00;2.70;;;19.60;89.30;;;;;;4941790;29;20279;-61
2022/05/25 10:45:54;;;;;;;5.70;3.27;;;19.70;90.10;;;;;;4926975;29;20517;-61
2022/05/25 10:49:08;;;;;;;3.47;2.20;;;19.60;89.20;;;;;;4937820;28;20226;-60
2022/05/25 10:51:48;;;;;;;2.97;2.20;;;19.60;88.80;;;;;;4930194;28;20217;-61
2022/05/25 10:54:45;;;;;;;2.00;1.80;;;20.10;89.60;;;;;;4923729;29;20664;-63
2022/05/25 10:57:27;;;;;;;3.13;2.50;;;20.50;86.30;;;;;;4925652;29;20710;-61
2022/05/25 11:00:04;;;;;;;3.40;1.90;;;20.20;86.70;;;;;;4925198;29;20200;-62
2022/05/25 11:02:53;;;;;;;3.93;2.17;;;20.10;85.30;;;;;;4924784;29;20243;-62
2022/05/25 11:05:30;;;;;;;3.47;2.03;;;20.10;85.50;;;;;;4927449;29;20508;-60
2022/05/25 11:08:11;;;;;;;2.63;2.40;;;20.00;84.90;;;;;;4927286;29;20199;-61
2022/05/25 11:10:49;;;;;;;7.10;5.63;;;19.90;85.10;;;;;;4927571;29;20277;-61
2022/05/25 11:13:31;;;;;;;2.67;2.30;;;20.00;85.60;;;;;;4927135;29;20279;-62
2022/05/25 11:16:20;;;;;;;3.30;2.70;;;20.70;86.00;;;;;;4925639;28;20700;-61
2022/05/25 11:19:32;;;;;;;2.33;1.40;;;21.70;81.60;;;;;;4931135;28;20246;-61
2022/05/25 11:22:20;;;;;;;4.03;2.60;;;22.40;78.70;;;;;;4929217;29;20205;-62
2022/05/25 11:25:04;;;;;;;2.03;1.90;;;22.50;76.70;;;;;;4931436;29;20192;-61
2022/05/25 11:27:44;;;;;;;3.07;2.10;;;22.20;75.10;;;;;;4930087;29;20236;-62
2022/05/25 11:30:16;;;;;;;;;;;22.30;72.90;;;;;;4936189;29;20027;-68
2022/05/25 11:33:03;;;;;;;;;;;21.40;83.10;;;;;;4937470;29;20111;-66
2022/05/25 11:35:48;;;;;;;;;;;20.20;89.70;;;;;;4943210;29;20045;-66
2022/05/25 11:38:37;;;;;;;;;;;19.80;84.70;;;;;;4943463;29;19911;-67
2022/05/25 11:41:16;;;;;;;;;;;19.50;88.20;;;;;;4929009;29;20652;-67
2022/05/25 11:43:42;;;;;;;;;;;19.70;86.50;;;;;;4935857;28;19914;-67
2022/05/25 11:46:16;;;;;;;;;;;19.60;83.10;;;;;;4935092;29;20719;-67
2022/05/25 11:48:41;;;;;;;;;;;19.70;81.30;;;;;;4938455;28;19926;-67
2022/05/25 11:51:30;;;;;;;;;;;19.90;80.40;;;;;;4939395;29;19922;-67
2022/05/25 11:54:03;;;;;;;;;;;20.50;79.00;;;;;;4931087;29;19910;-68
2022/05/25 11:56:58;;;;;;;;;;;21.20;77.00;;;;;;4936001;29;19914;-68
2022/05/25 11:59:23;;;;;;;;;;;21.80;76.50;;;;;;4907593;29;20417;-66
2022/05/25 12:02:02;;;;;;;;;;;21.70;75.10;;;;;;4942835;29;19910;-67
2022/05/25 12:04:56;;;;;;;37.42;20.25;;;21.50;73.50;;;;;;4939922;29;20932;-68
2022/05/25 12:07:42;;;;;;;11.13;4.73;;;21.80;72.40;;;;;;4946002;29;20548;-68
2022/05/25 12:10:37;;;;;;;12.15;5.38;;;21.20;72.30;;;;;;4937526;29;20791;-66
2022/05/25 12:13:26;;;;;;;8.87;4.07;;;21.20;74.00;;;;;;4931825;29;20258;-67
2022/05/25 12:16:06;;;;;;;9.67;4.63;;;21.50;73.90;;;;;;4927218;29;20217;-68
2022/05/25 12:18:57;;;;;;;686.97;642.87;;;22.20;72.00;;;;;;4939583;29;20684;-68
2022/05/25 12:21:26;;;;;;;11.68;5.38;;;23.50;72.00;;;;;;4935663;29;20206;-69
2022/05/25 12:24:00;;;;;;;11.65;5.80;;;24.00;66.60;;;;;;4942362;28;20197;-67
2022/05/25 12:26:29;;;;;;;11.83;5.43;;;22.20;68.70;;;;;;4940906;29;20641;-67
2022/05/25 12:29:14;;;;;;;264.73;248.50;;;21.10;70.90;;;;;;4930015;29;20199;-67
2022/05/25 12:31:42;;;;;;;233.97;221.00;;;21.10;72.90;;;;;;4911060;29;20222;-66
2022/05/25 12:34:14;;;;;;;10.53;5.30;;;21.20;73.60;;;;;;4933231;29;20241;-66
2022/05/25 12:36:40;;;;;;;12.13;5.57;;;21.10;73.30;;;;;;4935933;28;20209;-65
2022/05/25 12:39:07;;;;;;;5.43;3.65;;;21.50;72.70;;;;;;4939559;28;20218;-66
2022/05/25 12:41:35;;;;;;;13.10;6.28;;;22.00;70.30;;;;;;4932305;28;20234;-67
2022/05/25 12:49:42;;;;;;;2.35;2.15;;;23.40;66.00;;;;;;4931114;29;20980;-67
2022/05/25 12:52:26;;;;;;;4.30;2.58;;;23.10;66.60;;;;;;4929549;29;20280;-64
2022/05/25 12:55:16;;;;;;;4.03;1.73;;;22.30;68.40;;;;;;4932751;29;20199;-69
2022/05/25 12:57:50;;;;;;;2.40;2.17;;;22.70;67.60;;;;;;4928964;28;20647;-68
2022/05/25 13:00:27;;;;;;;3.08;2.33;;;23.50;66.10;;;;;;4928706;29;20728;-67
2022/05/25 13:02:53;;;;;;;1.83;1.73;;;23.30;65.70;;;;;;4930017;29;20252;-68
2022/05/25 13:05:46;;;;;;;1.73;1.63;;;22.90;66.10;;;;;;4928932;29;20198;-66
2022/05/25 13:08:49;;;;;;;3.75;1.88;;;22.60;64.40;;;;;;4929655;29;20198;-67
2022/05/25 13:11:36;;;;;;;2.83;1.70;;;22.40;64.40;;;;;;4926596;29;20210;-65
2022/05/25 13:14:16;;;;;;;2.53;1.73;;;21.40;66.00;;;;;;4927956;29;20192;-65
2022/05/25 13:16:42;;;;;;;3.78;2.45;;;22.30;66.30;;;;;;4930467;29;20195;-68
2022/05/25 13:19:21;;;;;;;1.58;1.40;;;22.90;65.60;;;;;;4930785;29;20266;-68
2022/05/25 13:21:58;;;;;;;2.50;2.17;;;23.50;62.70;;;;;;4926105;29;20279;-66
2022/05/25 13:24:33;;;;;;;3.50;3.17;;;23.20;62.90;;;;;;4928591;29;20189;-67
2022/05/25 13:27:42;;;;;;;3.20;1.73;;;22.70;63.80;;;;;;4934166;29;20401;-66
2022/05/25 13:30:28;;;;;;;2.33;2.17;;;21.10;64.70;;;;;;4922733;29;20207;-66
2022/05/25 13:33:16;;;;;;;3.60;2.37;;;21.20;64.20;;;;;;4935605;29;20736;-66
2022/05/25 13:35:57;;;;;;;2.63;2.20;;;21.30;64.90;;;;;;4932976;29;20669;-68
2022/05/25 13:38:43;;;;;;;2.10;2.00;;;21.60;64.00;;;;;;4933892;29;20210;-66
2022/05/25 13:41:19;;;;;;;1.77;1.60;;;21.70;62.20;;;;;;4930501;29;20203;-66
2022/05/25 13:44:00;;;;;;;4.10;2.42;;;21.80;62.50;;;;;;4924218;29;20645;-67
2022/05/25 13:46:45;;;;;;;2.15;1.92;;;22.40;61.80;;;;;;4936094;29;20198;-66
2022/05/25 13:49:19;;;;;;;2.65;2.00;;;23.20;60.70;;;;;;4936435;29;20231;-66
2022/05/25 13:51:44;;;;;;;2.42;1.60;;;24.60;60.50;;;;;;4939945;29;20233;-66